createdAt,value
2023-10-13T00:02:01.040Z,6.47
2023-10-13T00:04:36.701Z,5.73
2023-10-13T00:07:05.501Z,5.97
2023-10-13T00:09:34.260Z,6.10
2023-10-13T00:12:02.149Z,5.43
2023-10-13T00:14:34.513Z,6.13
2023-10-13T00:17:06.002Z,5.60
2023-10-13T00:19:39.514Z,6.13
2023-10-13T00:22:12.963Z,5.10
2023-10-13T00:24:48.726Z,5.80
2023-10-13T00:27:34.631Z,5.23
2023-10-13T00:30:19.009Z,5.13
2023-10-13T00:32:55.860Z,5.27
2023-10-13T00:35:29.480Z,6.17
2023-10-13T00:37:56.566Z,5.67
2023-10-13T00:40:41.328Z,5.83
2023-10-13T00:43:23.128Z,5.03
2023-10-13T00:45:58.299Z,5.67
2023-10-13T00:48:30.447Z,5.17
2023-10-13T00:51:00.479Z,5.20
2023-10-13T00:53:30.005Z,6.30
2023-10-13T00:55:57.134Z,5.63
2023-10-13T00:58:28.621Z,5.67
2023-10-13T01:00:57.877Z,5.53
2023-10-13T01:03:28.431Z,5.57
2023-10-13T01:05:56.032Z,5.47
2023-10-13T01:08:39.075Z,5.10
2023-10-13T01:11:08.483Z,5.87
2023-10-13T01:13:37.563Z,5.40
2023-10-13T01:16:08.427Z,5.47
2023-10-13T01:18:50.926Z,5.37
2023-10-13T01:21:20.740Z,5.67
2023-10-13T01:23:52.156Z,4.90
2023-10-13T01:26:24.794Z,5.63
2023-10-13T01:28:55.426Z,5.57
2023-10-13T01:31:30.302Z,5.50
2023-10-13T01:34:00.814Z,5.30
2023-10-13T01:36:27.745Z,5.63
2023-10-13T01:38:57.006Z,6.27
2023-10-13T01:41:23.801Z,5.33
2023-10-13T01:43:52.847Z,6.30
2023-10-13T01:46:23.315Z,4.90
2023-10-13T01:48:55.443Z,5.30
2023-10-13T01:51:24.327Z,5.07
2023-10-13T01:53:57.405Z,4.70
2023-10-13T01:56:26.018Z,5.40
2023-10-13T01:58:54.762Z,5.75
2023-10-13T02:01:27.800Z,4.70
2023-10-13T02:04:04.727Z,4.53
2023-10-13T02:06:35.056Z,5.30
2023-10-13T02:09:11.386Z,5.20
2023-10-13T02:11:40.230Z,4.90
2023-10-13T02:14:08.082Z,5.30
2023-10-13T02:16:37.947Z,5.07
2023-10-13T02:19:06.101Z,4.80
2023-10-13T02:21:33.046Z,4.97
2023-10-13T02:24:05.091Z,5.40
2023-10-13T02:26:32.206Z,5.70
2023-10-13T02:29:04.338Z,5.60
2023-10-13T02:31:32.436Z,5.53
2023-10-13T02:34:01.043Z,5.50
2023-10-13T02:36:38.119Z,5.00
2023-10-13T02:39:08.723Z,5.47
2023-10-13T02:41:38.182Z,5.13
2023-10-13T02:44:08.826Z,5.53
2023-10-13T02:46:37.485Z,5.77
2023-10-13T02:49:12.166Z,5.50
2023-10-13T02:51:43.148Z,6.00
2023-10-13T02:54:12.499Z,5.80
2023-10-13T02:56:42.528Z,5.80
2023-10-13T02:59:13.477Z,5.37
2023-10-13T03:01:40.231Z,6.00
2023-10-13T03:04:10.003Z,5.30
2023-10-13T03:06:37.039Z,5.20
2023-10-13T03:09:16.029Z,5.40
2023-10-13T03:11:43.703Z,5.40
2023-10-13T03:14:25.124Z,4.93
2023-10-13T03:16:54.366Z,4.93
2023-10-13T03:19:22.208Z,4.07
2023-10-13T03:21:56.342Z,5.30
2023-10-13T03:24:34.575Z,6.17
2023-10-13T03:27:09.943Z,5.73
2023-10-13T03:29:40.361Z,6.80
2023-10-13T03:32:12.794Z,6.70
2023-10-13T03:34:55.897Z,6.90
2023-10-13T03:37:39.090Z,6.63
2023-10-13T03:40:29.984Z,6.53
2023-10-13T03:43:05.542Z,6.27
2023-10-13T03:45:40.496Z,6.57
2023-10-13T03:48:12.782Z,6.30
2023-10-13T03:50:48.654Z,6.53
2023-10-13T03:53:16.421Z,6.13
2023-10-13T03:55:49.517Z,7.53
2023-10-13T03:58:18.021Z,6.70
2023-10-13T04:00:47.446Z,6.40
2023-10-13T04:03:18.338Z,6.50
2023-10-13T04:06:07.663Z,6.60
2023-10-13T04:08:49.799Z,6.53
2023-10-13T04:11:34.949Z,7.00
2023-10-13T04:14:20.334Z,6.33
2023-10-13T04:16:55.909Z,6.63
2023-10-13T04:19:30.397Z,7.37
2023-10-13T04:22:00.186Z,6.83
2023-10-13T04:24:46.184Z,6.93
2023-10-13T04:27:46.197Z,7.50
2023-10-13T04:30:26.623Z,7.80
2023-10-13T04:33:09.809Z,6.43
2023-10-13T04:35:48.654Z,7.20
2023-10-13T04:38:21.405Z,6.30
2023-10-13T04:41:02.624Z,5.90
2023-10-13T04:43:56.124Z,6.67
2023-10-13T04:46:37.124Z,6.30
2023-10-13T04:49:27.996Z,7.13
2023-10-13T04:52:02.075Z,7.23
2023-10-13T04:54:34.828Z,7.20
2023-10-13T04:57:16.740Z,6.73
2023-10-13T05:00:08.869Z,6.77
2023-10-13T05:02:57.077Z,6.03
2023-10-13T05:08:20.166Z,6.67
2023-10-13T05:11:05.417Z,6.43
2023-10-13T05:13:50.867Z,6.83
2023-10-13T05:16:50.853Z,6.00
2023-10-13T05:19:36.134Z,5.70
2023-10-13T05:22:21.556Z,6.67
2023-10-13T05:25:08.153Z,12.67
2023-10-13T05:27:53.708Z,6.37
2023-10-13T05:30:39.086Z,6.07
2023-10-13T05:33:24.401Z,6.30
2023-10-13T05:36:09.840Z,6.73
2023-10-13T05:38:55.129Z,6.73
2023-10-13T05:41:42.060Z,6.13
2023-10-13T05:44:27.494Z,5.13
2023-10-13T05:47:35.108Z,5.30
2023-10-13T05:50:06.776Z,5.97
2023-10-13T05:52:52.094Z,5.73
2023-10-13T05:55:37.623Z,5.53
2023-10-13T05:58:24.383Z,5.33
2023-10-13T06:01:09.684Z,5.77
2023-10-13T06:03:54.892Z,6.27
2023-10-13T06:06:40.195Z,6.20
2023-10-13T06:09:25.900Z,5.20
2023-10-13T06:12:11.223Z,4.53
2023-10-13T06:14:57.837Z,4.83
2023-10-13T06:17:43.067Z,5.50
2023-10-13T06:20:29.156Z,5.00
2023-10-13T06:23:14.356Z,5.20
2023-10-13T06:25:59.833Z,5.70
2023-10-13T06:28:43.033Z,4.57
2023-10-13T06:31:22.877Z,5.63
2023-10-13T06:33:51.290Z,5.87
2023-10-13T06:36:20.030Z,5.57
2023-10-13T06:38:56.494Z,6.70
2023-10-13T06:41:35.688Z,6.63
2023-10-13T06:44:06.412Z,11.43
2023-10-13T06:46:36.193Z,6.10
2023-10-13T06:49:04.184Z,6.00
2023-10-13T06:51:39.030Z,5.90
2023-10-13T06:54:11.838Z,5.80
2023-10-13T06:56:41.685Z,6.53
2023-10-13T06:59:09.418Z,6.47
2023-10-13T07:01:41.551Z,6.87
2023-10-13T07:04:14.508Z,7.87
2023-10-13T07:06:45.605Z,6.00
2023-10-13T07:09:30.587Z,5.73
2023-10-13T07:12:02.223Z,5.70
2023-10-13T07:14:30.051Z,5.27
2023-10-13T07:17:00.419Z,5.20
2023-10-13T07:19:29.361Z,4.67
2023-10-13T07:21:59.839Z,5.40
2023-10-13T07:24:33.007Z,5.80
2023-10-13T07:27:06.182Z,5.10
2023-10-13T07:29:36.601Z,4.82
2023-10-13T07:32:13.820Z,5.05
2023-10-13T07:34:41.868Z,5.43
2023-10-13T07:37:17.258Z,5.03
2023-10-13T07:39:45.253Z,4.77
2023-10-13T07:42:20.637Z,4.95
2023-10-13T07:44:48.494Z,5.03
2023-10-13T07:47:19.332Z,5.40
2023-10-13T07:49:51.911Z,4.07
2023-10-13T07:52:38.224Z,5.13
2023-10-13T07:55:21.207Z,4.55
2023-10-13T07:58:01.057Z,7.50
2023-10-13T08:00:40.141Z,5.63
2023-10-13T08:03:22.116Z,4.93
2023-10-13T08:05:59.521Z,4.70
2023-10-13T08:08:36.408Z,4.40
2023-10-13T08:11:09.766Z,4.88
2023-10-13T08:13:48.168Z,4.68
2023-10-13T08:16:24.372Z,4.70
2023-10-13T08:18:53.497Z,4.93
2023-10-13T08:21:24.177Z,4.72
2023-10-13T08:24:07.177Z,4.55
2023-10-13T08:26:51.623Z,4.70
2023-10-13T08:29:36.756Z,4.70
2023-10-13T08:32:21.208Z,4.70
2023-10-13T08:35:11.373Z,4.95
2023-10-13T08:38:08.558Z,4.28
2023-10-13T08:41:05.665Z,4.80
2023-10-13T08:43:44.792Z,4.30
2023-10-13T08:46:25.864Z,4.63
2023-10-13T08:49:07.979Z,4.28
2023-10-13T08:51:46.505Z,4.72
2023-10-13T08:54:20.671Z,3.80
2023-10-13T08:56:56.748Z,3.40
2023-10-13T08:59:34.723Z,3.55
2023-10-13T09:02:17.832Z,4.00
2023-10-13T09:04:46.067Z,4.03
2023-10-13T09:07:23.312Z,3.97
2023-10-13T09:10:14.634Z,4.18
2023-10-13T09:13:01.694Z,4.05
2023-10-13T09:15:46.841Z,3.83
2023-10-13T09:18:20.056Z,4.40
2023-10-13T09:20:47.280Z,3.92
2023-10-13T09:23:26.082Z,4.03
2023-10-13T09:25:59.413Z,3.65
2023-10-13T09:28:29.380Z,3.65
2023-10-13T09:30:58.349Z,3.53
2023-10-13T09:33:30.572Z,4.38
2023-10-13T09:36:00.516Z,3.55
2023-10-13T09:38:29.862Z,3.90
2023-10-13T09:40:59.344Z,3.97
2023-10-13T09:43:27.802Z,3.78
2023-10-13T09:46:03.365Z,4.15
2023-10-13T09:48:34.016Z,3.78
2023-10-13T09:51:02.987Z,4.70
2023-10-13T09:53:31.899Z,4.15
2023-10-13T09:56:12.419Z,3.63
2023-10-13T09:58:48.651Z,4.20
2023-10-13T10:01:21.903Z,4.20
2023-10-13T10:04:09.310Z,4.28
2023-10-13T10:06:44.902Z,4.68
2023-10-13T10:09:13.234Z,4.35
2023-10-13T10:12:19.744Z,5.45
2023-10-13T10:14:59.475Z,4.20
2023-10-13T10:17:30.667Z,4.82
2023-10-13T10:19:58.598Z,4.47
2023-10-13T10:22:29.175Z,4.68
2023-10-13T10:25:00.402Z,5.03
2023-10-13T10:27:30.351Z,5.50
2023-10-13T10:29:58.405Z,5.22
2023-10-13T10:32:41.504Z,4.78
2023-10-13T10:35:11.048Z,4.97
2023-10-13T10:37:40.741Z,5.15
2023-10-13T10:40:20.546Z,5.20
2023-10-13T10:42:53.792Z,6.13
2023-10-13T10:45:24.010Z,5.55
2023-10-13T10:47:59.307Z,5.95
2023-10-13T10:50:36.155Z,5.65
2023-10-13T10:53:09.845Z,5.93
2023-10-13T10:55:39.594Z,5.15
2023-10-13T10:58:07.804Z,5.03
2023-10-13T11:00:47.222Z,5.40
2023-10-13T11:03:15.951Z,5.45
2023-10-13T11:05:47.453Z,5.20
2023-10-13T11:08:32.648Z,5.60
2023-10-13T11:11:05.178Z,5.60
2023-10-13T11:13:51.693Z,5.00
2023-10-13T11:16:26.177Z,5.22
2023-10-13T11:19:03.155Z,5.40
2023-10-13T11:21:32.762Z,5.88
2023-10-13T11:24:09.782Z,5.78
2023-10-13T11:26:49.233Z,5.60
2023-10-13T11:29:19.970Z,5.80
2023-10-13T11:31:54.678Z,5.50
2023-10-13T11:34:22.891Z,5.82
2023-10-13T11:36:50.854Z,5.20
2023-10-13T11:39:23.914Z,6.13
2023-10-13T11:41:55.932Z,5.13
2023-10-13T11:44:26.139Z,5.68
2023-10-13T11:47:08.560Z,5.65
2023-10-13T11:49:38.601Z,5.78
2023-10-13T11:52:26.322Z,5.70
2023-10-13T11:54:54.186Z,6.20
2023-10-13T11:57:23.648Z,5.70
2023-10-13T12:00:20.108Z,5.32
2023-10-13T12:03:05.577Z,5.32
2023-10-13T12:05:50.300Z,5.63
2023-10-13T12:08:23.722Z,5.32
2023-10-13T12:11:01.242Z,5.35
2023-10-13T12:13:31.584Z,5.22
2023-10-13T12:15:59.464Z,6.05
2023-10-13T12:18:29.157Z,4.97
2023-10-13T12:20:58.345Z,5.40
2023-10-13T12:23:32.583Z,5.40
2023-10-13T12:26:01.671Z,5.45
2023-10-13T12:28:32.572Z,4.90
2023-10-13T12:31:08.385Z,5.28
2023-10-13T12:33:41.334Z,5.10
2023-10-13T12:36:11.965Z,5.20
2023-10-13T12:38:52.200Z,5.47
2023-10-13T12:41:37.924Z,5.45
2023-10-13T12:44:25.249Z,5.03
2023-10-13T12:47:10.730Z,4.97
2023-10-13T12:49:53.449Z,4.70
2023-10-13T12:52:21.555Z,4.90
2023-10-13T12:54:59.678Z,5.63
2023-10-13T12:57:27.729Z,5.22
2023-10-13T12:59:56.987Z,4.85
2023-10-13T13:02:26.419Z,4.45
2023-10-13T13:04:58.137Z,4.60
2023-10-13T13:07:30.485Z,4.13
2023-10-13T13:10:01.067Z,4.78
2023-10-13T13:12:29.360Z,4.82
2023-10-13T13:14:58.487Z,4.78
2023-10-13T13:17:26.345Z,4.88
2023-10-13T13:19:54.868Z,5.13
2023-10-13T13:22:22.807Z,4.93
2023-10-13T13:24:50.514Z,4.85
2023-10-13T13:27:21.002Z,4.55
2023-10-13T13:29:48.858Z,4.60
2023-10-13T13:32:20.227Z,4.45
2023-10-13T13:34:56.227Z,4.80
2023-10-13T13:37:28.517Z,4.55
2023-10-13T13:39:57.586Z,5.43
2023-10-13T13:42:25.339Z,5.07
2023-10-13T13:45:00.091Z,4.75
2023-10-13T13:47:29.317Z,5.10
2023-10-13T13:49:57.306Z,4.63
2023-10-13T13:52:34.961Z,4.70
2023-10-13T13:55:04.269Z,4.35
2023-10-13T13:57:32.206Z,4.63
2023-10-13T13:59:59.979Z,5.03
2023-10-13T14:02:29.837Z,4.60
2023-10-13T14:04:57.908Z,5.10
2023-10-13T14:07:25.898Z,5.03
2023-10-13T14:09:53.929Z,4.88
2023-10-13T14:12:42.696Z,5.30
2023-10-13T14:15:21.134Z,5.05
2023-10-13T14:17:50.888Z,5.28
2023-10-13T14:20:20.533Z,5.10
2023-10-13T14:22:50.565Z,5.10
2023-10-13T14:25:19.482Z,4.57
2023-10-13T14:27:47.572Z,5.10
2023-10-13T14:30:20.935Z,4.38
2023-10-13T14:32:50.669Z,3.92
2023-10-13T14:35:18.628Z,4.63
2023-10-13T14:37:46.360Z,4.65
2023-10-13T14:40:16.301Z,4.75
2023-10-13T14:42:44.455Z,4.63
2023-10-13T14:45:14.588Z,4.40
2023-10-13T14:47:42.807Z,4.13
2023-10-13T14:50:18.660Z,5.00
2023-10-13T14:52:46.503Z,4.57
2023-10-13T14:55:20.811Z,5.43
2023-10-13T14:57:50.735Z,4.55
2023-10-13T15:00:25.862Z,4.80
2023-10-13T15:02:54.215Z,4.00
2023-10-13T15:05:23.604Z,5.05
2023-10-13T15:07:52.634Z,4.63
2023-10-13T15:10:20.616Z,4.40
2023-10-13T15:12:49.907Z,4.38
2023-10-13T15:15:20.150Z,5.03
2023-10-13T15:17:48.193Z,4.40
2023-10-13T15:20:17.960Z,4.60
2023-10-13T15:22:48.784Z,4.60
2023-10-13T15:25:29.457Z,5.40
2023-10-13T15:28:03.797Z,4.30
2023-10-13T15:30:45.450Z,4.75
2023-10-13T15:33:14.218Z,4.00
2023-10-13T15:35:43.893Z,4.80
2023-10-13T15:38:14.204Z,4.30
2023-10-13T15:40:45.659Z,4.85
2023-10-13T15:43:13.996Z,4.82
2023-10-13T15:45:43.999Z,4.80
2023-10-13T15:50:43.765Z,4.32
2023-10-13T15:53:14.806Z,4.80
2023-10-13T15:55:46.783Z,4.18
2023-10-13T15:58:14.794Z,4.75
2023-10-13T16:00:42.812Z,4.68
2023-10-13T16:03:13.051Z,4.05
2023-10-13T16:05:43.652Z,4.85
2023-10-13T16:08:13.573Z,4.30
2023-10-13T16:10:41.793Z,4.82
2023-10-13T16:13:16.347Z,5.70
2023-10-13T16:15:44.842Z,4.38
2023-10-13T16:18:12.770Z,4.53
2023-10-13T16:20:41.172Z,4.43
2023-10-13T16:23:09.512Z,4.32
2023-10-13T16:25:38.741Z,5.72
2023-10-13T16:28:08.857Z,4.25
2023-10-13T16:30:38.419Z,4.55
2023-10-13T16:33:06.464Z,4.80
2023-10-13T16:35:34.941Z,5.00
2023-10-13T16:38:07.542Z,4.38
2023-10-13T16:40:35.629Z,4.07
2023-10-13T16:43:05.228Z,4.70
2023-10-13T16:45:34.136Z,4.78
2023-10-13T16:48:02.248Z,5.03
2023-10-13T16:50:31.065Z,4.68
2023-10-13T16:52:59.378Z,4.03
2023-10-13T16:55:30.136Z,5.05
2023-10-13T16:57:58.191Z,4.72
2023-10-13T17:00:27.677Z,4.80
2023-10-13T17:02:55.921Z,4.90
2023-10-13T17:05:28.862Z,4.85
2023-10-13T17:08:00.373Z,4.35
2023-10-13T17:10:30.071Z,4.55
2023-10-13T17:12:58.726Z,4.85
2023-10-13T17:15:33.087Z,4.50
2023-10-13T17:18:01.008Z,4.15
2023-10-13T17:20:29.088Z,4.63
2023-10-13T17:22:57.392Z,3.85
2023-10-13T17:25:26.590Z,4.90
2023-10-13T17:27:54.684Z,4.55
2023-10-13T17:30:22.480Z,4.50
2023-10-13T17:32:51.584Z,4.95
2023-10-13T17:35:19.599Z,4.68
2023-10-13T17:37:48.268Z,4.18
2023-10-13T17:40:17.519Z,4.25
2023-10-13T17:42:48.260Z,4.15
2023-10-13T17:45:16.195Z,4.90
2023-10-13T17:47:44.609Z,4.68
2023-10-13T17:50:14.504Z,4.20
2023-10-13T17:52:43.435Z,4.57
2023-10-13T17:55:12.215Z,4.18
2023-10-13T17:57:41.462Z,4.20
2023-10-13T18:00:16.935Z,4.07
2023-10-13T18:02:44.881Z,4.47
2023-10-13T18:05:14.072Z,4.40
2023-10-13T18:07:42.279Z,4.90
2023-10-13T18:10:13.730Z,4.85
2023-10-13T18:12:41.735Z,4.32
2023-10-13T18:15:10.818Z,4.53
2023-10-13T18:17:40.648Z,5.38
2023-10-13T18:20:11.362Z,4.97
2023-10-13T18:22:40.932Z,4.40
2023-10-13T18:25:13.168Z,5.38
2023-10-13T18:27:43.314Z,5.00
2023-10-13T18:30:13.375Z,4.53
2023-10-13T18:32:42.293Z,5.05
2023-10-13T18:35:12.550Z,4.82
2023-10-13T18:37:43.371Z,4.20
2023-10-13T18:40:13.914Z,5.07
2023-10-13T18:42:44.079Z,4.90
2023-10-13T18:45:12.790Z,4.57
2023-10-13T18:47:41.180Z,4.93
2023-10-13T18:50:09.242Z,5.07
2023-10-13T18:52:37.048Z,4.45
2023-10-13T18:55:08.728Z,4.97
2023-10-13T18:57:36.579Z,4.78
2023-10-13T19:00:07.738Z,4.85
2023-10-13T19:02:35.586Z,4.68
2023-10-13T19:05:04.229Z,5.30
2023-10-13T19:07:32.165Z,5.35
2023-10-13T19:10:00.056Z,5.07
2023-10-13T19:12:29.251Z,5.75
2023-10-13T19:14:57.257Z,4.25
2023-10-13T19:17:25.509Z,5.10
2023-10-13T19:19:53.286Z,4.60
2023-10-13T19:22:21.400Z,4.75
2023-10-13T19:24:49.267Z,5.53
2023-10-13T19:27:17.003Z,4.50
2023-10-13T19:29:46.143Z,4.82
2023-10-13T19:32:13.958Z,4.85
2023-10-13T19:34:43.154Z,5.15
2023-10-13T19:37:11.015Z,5.10
2023-10-13T19:39:43.423Z,5.47
2023-10-13T19:42:11.750Z,4.95
2023-10-13T19:44:41.263Z,5.70
2023-10-13T19:47:14.931Z,5.05
2023-10-13T19:49:44.513Z,5.20
2023-10-13T19:52:12.473Z,5.35
2023-10-13T19:54:40.936Z,5.53
2023-10-13T19:57:12.233Z,5.15
2023-10-13T19:59:42.172Z,5.10
2023-10-13T20:02:11.429Z,5.05
2023-10-13T20:04:39.289Z,5.20
2023-10-13T20:07:07.382Z,4.38
2023-10-13T20:09:35.197Z,5.82
2023-10-13T20:12:03.755Z,5.53
2023-10-13T20:14:33.487Z,5.18
2023-10-13T20:17:01.279Z,4.90
2023-10-13T20:19:30.482Z,5.47
2023-10-13T20:21:58.829Z,6.05
2023-10-13T20:24:26.608Z,5.20
2023-10-13T20:26:54.443Z,5.78
2023-10-13T20:29:22.252Z,5.75
2023-10-13T20:31:50.607Z,5.15
2023-10-13T20:34:20.571Z,6.20
2023-10-13T20:36:50.111Z,5.45
2023-10-13T20:39:25.431Z,4.78
2023-10-13T20:41:53.317Z,5.57
2023-10-13T20:44:21.077Z,6.22
2023-10-13T20:46:48.960Z,6.03
2023-10-13T20:49:16.898Z,5.13
2023-10-13T20:51:44.804Z,5.53
2023-10-13T20:54:14.283Z,6.30
2023-10-13T20:56:42.934Z,6.10
2023-10-13T20:59:15.408Z,5.07
2023-10-13T21:01:43.692Z,5.47
2023-10-13T21:04:12.963Z,5.97
2023-10-13T21:06:45.548Z,5.45
2023-10-13T21:09:21.507Z,5.68
2023-10-13T21:11:49.934Z,5.40
2023-10-13T21:14:17.892Z,5.22
2023-10-13T21:16:45.712Z,6.05
2023-10-13T21:19:13.622Z,5.80
2023-10-13T21:21:41.881Z,5.15
2023-10-13T21:24:11.802Z,5.90
2023-10-13T21:26:41.110Z,5.35
2023-10-13T21:29:09.891Z,5.40
2023-10-13T21:31:38.531Z,6.22
2023-10-13T21:34:08.202Z,5.95
2023-10-13T21:36:38.086Z,6.00
2023-10-13T21:39:06.162Z,6.30
2023-10-13T21:41:37.997Z,5.90
2023-10-13T21:44:07.998Z,6.00
2023-10-13T21:46:36.972Z,6.13
2023-10-13T21:49:08.130Z,6.43
2023-10-13T21:51:36.681Z,5.65
2023-10-13T21:54:08.580Z,5.93
2023-10-13T21:56:36.883Z,7.22
2023-10-13T21:59:07.132Z,6.43
2023-10-13T22:04:11.535Z,6.63
2023-10-13T22:06:41.307Z,7.35
2023-10-13T22:09:10.927Z,6.22
2023-10-13T22:11:39.387Z,5.53
2023-10-13T22:14:07.624Z,7.13
2023-10-13T22:16:37.811Z,6.88
2023-10-13T22:19:05.709Z,7.13
2023-10-13T22:21:33.556Z,6.05
2023-10-13T22:24:02.024Z,6.80
2023-10-13T22:26:31.201Z,6.60
2023-10-13T22:28:59.929Z,5.80
2023-10-13T22:31:28.435Z,5.78
2023-10-13T22:33:57.661Z,6.30
2023-10-13T22:36:25.687Z,5.75
2023-10-13T22:38:56.991Z,5.95
2023-10-13T22:41:25.058Z,6.13
2023-10-13T22:43:52.759Z,6.63
2023-10-13T22:46:20.700Z,6.10
2023-10-13T22:48:49.262Z,6.55
2023-10-13T22:51:18.602Z,6.25
2023-10-13T22:53:47.063Z,6.30
2023-10-13T22:56:18.610Z,6.00
2023-10-13T22:58:46.997Z,6.13
2023-10-13T23:01:18.824Z,5.53
2023-10-13T23:03:56.893Z,6.55
2023-10-13T23:06:31.556Z,6.55
2023-10-13T23:11:34.388Z,6.28
2023-10-13T23:14:03.033Z,5.95
2023-10-13T23:16:33.552Z,6.00
2023-10-13T23:19:01.705Z,6.82
2023-10-13T23:21:31.317Z,6.53
2023-10-13T23:23:59.998Z,5.90
2023-10-13T23:26:27.970Z,6.20
2023-10-13T23:28:55.681Z,6.40
2023-10-13T23:31:24.917Z,6.63
2023-10-13T23:33:54.643Z,6.72
2023-10-13T23:36:22.855Z,6.65
2023-10-13T23:38:56.486Z,7.45
2023-10-13T23:41:28.379Z,7.50
2023-10-13T23:43:59.450Z,6.93
2023-10-13T23:46:28.053Z,7.07
2023-10-13T23:48:56.154Z,8.15
2023-10-13T23:51:28.275Z,7.50
2023-10-13T23:54:01.866Z,7.75
2023-10-13T23:56:31.066Z,8.13
2023-10-13T23:59:06.647Z,7.18
